Curranville, Kansas
Current Conditions -  °F | °C
As of 2:15 PM on Thursday 18 Dec 2014 (Local Time) from KPTS Reporting Station
Overcast Overcast  
Wind Chill: 39°   Ceiling: 1200
Heat Index: 39°   Visibility: 10mi
Dew Point: 39°   Wind: 3mph
Humidity: 100%   Direction: 330°NNW
Pressure: 30.15"   Gusts: NA
Location:  37.5542°N, 94.6826°W
Report Text: KPTS 182015Z AUTO 33003KT 10SM OVC012 04/04 A3015 RMK AO2 T00380038
Loading
Personal Weather Stations






























Interactive Weather Map New forecast layout! Learn more

10-Day Weather Forecast

Advertisements
Track Severe Weather on mobile